Weather at McGregor Executive Airport

Public forecast

Using degrees Fahrenheit for public forecast. Weather courtesy of forecast.io.

Current aviation weather report (METAR) for McGregor Executive Airport

Retrieved 2020/09/20 17:56 UTC (1 hour ago):

KPWG 201756Z AUTO 03013KT 10SM CLR 26/13 A3013 RMK AO2 SLP197 T02560128 10256 20139 58011

Closest aviation forecast (TAF) to McGregor Executive Airport

Closest forecast is Waco Regional Airport, 8.8 nm (16.2 km) NNE. Retrieved 2020/09/20 18:36 UTC (23 minutes ago):

TAF KACT 201735Z 2018/2118 03011KT P6SM FEW030 FM210300 05008KT P6SM BKN070 FM210900 04009KT P6SM VCSH OVC020 FM211200 03009KT 4SM SHRA BR OVC010